Station info - map view · info · telemetry · weather · raw · status · beacons · messages · bulletins · browse · moving · my account
Callsign, ship name or locator: Clear       
It is possible to search using wildcards (*?) after a prefix. Example: OH*
APRS station DO4AS-12 - show graphs
Map loading...
Comment: F8N460T20E354Y306V8C8S25 RHG
Location: 50°59.77' N 14°00.40' E - locator JO70AX09TB - show map - static map
0.6 miles North bearing 18° from Lohmen, Direktionsbezirk Dresden, Saxony, Germany [?]
4.0 miles Northeast bearing 49° from Pirna, Direktionsbezirk Dresden, Saxony, Germany
65.3 miles North bearing 344° from Prague, Hlavní Mesto Praha, Czech Republic
74.7 miles East bearing 108° from Leipzig, Direktionsbezirk Leipzig, Saxony, Germany
Last position: 2021-06-14 06:14:27 EDT (3d 22h57m ago)
2021-06-14 12:14:27 CEST local time at Lohmen, Germany [?]
Altitude: 1870 ft
Speed: 5 MPH
Device: Unknown: Unknown
Last path: DO4AS-12>APRS via WIDE1-1,qAR,DB0PIB (good)
Positions stored: 4411
Packet rate: 38 seconds between packets on average during 1854 seconds.
Other SSIDs: DO4AS DO4AS-10 DO4AS-11 DO4AS-5 DO4AS-7
Stations near current position of DO4AS-12 - show more
callsign distance last heard - EDT      callsign distance last heard - EDT
DW47362.5 miles 268°2021-06-18 05:11:18 DL1ARK-95.1 miles 237°2021-06-14 05:10:35
DM/SX-0575.7 miles 143°2021-06-12 02:33:01 S0441285_6.3 miles 36°2021-06-13 21:56:00
S04412856.3 miles 34°2021-06-13 21:56:00 211517950 DE6.4 miles 279°2021-06-17 14:17:04
CAROLINE7.7 miles 289°2021-06-17 14:15:08 DH5ABC-119.2 miles 230°2021-06-02 10:20:53
DK5CX-DP9.8 miles 277°2021-06-18 04:58:05 DH5ABC-139.8 miles 235°2021-06-17 12:09:20
DH5ABC-R9.8 miles 235°2021-06-13 12:38:25 DH5ABC-149.9 miles 235°2021-06-08 06:46:26
DH5ABC-169.9 miles 235°2021-06-17 12:18:38 DO5UH-910.0 miles 277°2021-06-17 18:52:59
DH5ABC-1510.5 miles 237°2021-05-29 11:17:49 FW171111.2 miles 280°2021-06-18 05:00:25
DO1MIT-911.4 miles 284°2021-06-04 05:29:50 JOHANNA11.4 miles 294°2021-06-17 14:32:19
DO2FN11.5 miles 283°2021-06-18 05:09:28 DL2DVL-511.7 miles 278°2021-05-22 10:28:50
Stations which heard DO4AS-12 directly on radio –
callsign pkts first heard - EDT last heard longest (tx => rx) longest at - EDT
DB0FUZ 2 2021-06-14 01:46:12 2021-06-14 01:58:34 JO62SP > JO62TK 13.8 miles 170° 2021-06-14 01:46:12
DM0MW 1 2021-06-14 05:54:04 2021-06-14 05:54:04 JO71AB > JO60LX 46.3 miles 266° 2021-06-14 05:54:04
DB0WBE 12 2021-06-14 04:23:13 2021-06-14 06:12:00 JO70AX > JO61SL 40.2 miles 328° 2021-06-14 06:12:00
DD5ASA 5 2021-06-14 05:46:01 2021-06-14 06:06:25 JO71AB > JO70DW 15.6 miles 128° 2021-06-14 05:46:01
DB0MAK 4 2021-06-14 04:41:07 2021-06-14 04:47:18 JO61XO > JO60BA 134.4 miles 216° 2021-06-14 04:41:07
DB0SPB 8 2021-06-14 04:38:39 2021-06-14 06:05:49 JO61WO > JO70IX 56.4 miles 143° 2021-06-14 04:38:39
DM4JO-10 1 2021-06-14 04:27:31 2021-06-14 04:27:31 JO61VR > JO63PM 126.9 miles 349° 2021-06-14 04:27:31
DB0LDS 14 2021-06-14 01:34:28 2021-06-14 04:41:46 JO61XO > JO62TH 52.2 miles 346° 2021-06-14 04:41:46
DJ9ZZZ-10 3 2021-06-14 06:01:28 2021-06-14 06:11:22 JO70AX > JO61OI 41.6 miles 306° 2021-06-14 06:11:22
SP2GG-4 1 2021-06-14 04:56:34 2021-06-14 04:56:34 JO71AK > JO83VA 191.5 miles 54° 2021-06-14 04:56:34
DH0BRO-1 1 2021-06-14 02:39:57 2021-06-14 02:39:57 JO62SK > JO62LI 25.0 miles 258° 2021-06-14 02:39:57
DG1JLA-3 30 2021-06-14 04:34:56 2021-06-14 06:07:02 JO61WP > JO60LV 64.2 miles 218° 2021-06-14 04:34:56
DO4DR-10 9 2021-06-14 04:25:02 2021-06-14 04:55:57 JO61VR > JO60GT 83.3 miles 221° 2021-06-14 04:25:02
DB0LS 13 2021-06-14 02:07:12 2021-06-14 06:13:50 JO62SN > JO61VM 73.4 miles 171° 2021-06-14 02:07:12
DO0RM-10 2 2021-06-14 04:38:01 2021-06-14 04:46:04 JO61XN > JO63HJ 139.3 miles 336° 2021-06-14 04:46:04
DB0BRB 24 2021-06-14 02:05:58 2021-06-14 04:44:49 JO61XN > JO62GJ 84.7 miles 315° 2021-06-14 04:44:49
DB0BBB 31 2021-06-14 01:30:44 2021-06-14 02:50:28 JO62SJ > JO62SQ 19.7 miles 2° 2021-06-14 02:50:28
DB0TGO-15 2 2021-06-14 01:43:06 2021-06-14 02:23:53 JO62SM > JO62ON 13.8 miles 288° 2021-06-14 02:23:53
DB0AJW 38 2021-06-14 02:02:54 2021-06-14 02:51:43 JO62SJ > JO62PM 15.0 miles 304° 2021-06-14 02:51:43
DL3RMG-10 1 2021-06-14 04:49:09 2021-06-14 04:49:09 JO61XM > JN69LH 159.4 miles 197° 2021-06-14 04:49:09
SR3NNV 10 2021-06-14 02:23:16 2021-06-14 04:36:47 JO62SK > JO82CJ 111.1 miles 92° 2021-06-14 02:35:37
DO8OP-11 1 2021-06-14 04:53:29 2021-06-14 04:53:29 JO71AL > JO62NM 81.5 miles 333° 2021-06-14 04:53:29
DO4EM 45 2021-06-14 01:38:09 2021-06-14 02:39:57 JO62SK > JO62VP 16.5 miles 34° 2021-06-14 02:39:57
SP3AH 1 2021-06-14 04:41:08 2021-06-14 04:41:08 JO61XO > JO72WO 107.9 miles 49° 2021-06-14 04:41:08
DB0SC-2 6 2021-06-14 04:30:37 2021-06-14 04:55:21 JO61WQ > JN49VN 230.9 miles 232° 2021-06-14 04:30:37
DC7RF-1 10 2021-06-14 02:20:10 2021-06-14 04:41:44 JO61XO > JO62QM 68.9 miles 341° 2021-06-14 04:41:44
DB0PIB 45 2021-06-14 04:23:11 2021-06-14 06:14:27 JO61VS > JO71EC 51.4 miles 151° 2021-06-14 04:23:11
DL0PKW-10 2 2021-06-14 02:24:30 2021-06-14 02:39:20 JO62SK > JO63FD 66.3 miles 317° 2021-06-14 02:39:20
DB0TA 1 2021-06-14 02:36:18 2021-06-14 02:36:18 JO62SK > JO62TP 13.4 miles 12° 2021-06-14 02:36:18
DB0LOS 4 2021-06-14 01:31:24 2021-06-14 02:31:59 JO62RO > JO72AH 30.6 miles 132° 2021-06-14 01:31:24

Only position packets which were originated by the station are shown here. The range statistics show some extra long hops, because some digipeaters do not correctly add themselves to the digipeater path. Please check the raw packets.
About this site
This page shows real-time information collected from the Automatic Position Reporting System Internet network (APRS-IS). APRS is used by amateur (ham) radio operators to transmit real-time position information, weather data, telemetry and messages over the radio. A vehicle equipped with a GPS receiver, a VHF transmitter or HF transceiver and a small computer device called a tracker transmits it's location, speed and course in a small data packet, which is then received by a nearby iGate receiving site which forwards the packet on the Internet. Systems connected to the Internet can send information on the APRS-IS without a radio transmitter, or collect and display information transmitted anywhere in the world.
User guide · FAQ · Blog · Discussion group · Linking to aprs.fi · AIS sites · Service status · Database statistics · Advertising on aprs.fi · Technical details · API · Change log · Planned changes · Credits and thanks · Terms Of Service · iPhone/iPad APRS